Time;durP1;ratioP1;P1;durP2;ratioP2;P2;SDS_P1;SDS_P2;PMS_P1;PMS_P2;Temp;Humidity;BMP_temperature;BMP_pressure;BME280_temperature;BME280_humidity;BME280_pressure;Samples;Min_cycle;Max_cycle;Signal;HPM_P1;HPM_P2
2023/10/20 00:04:55;;;;;;;0.00;0.00;;;;;;;-145.06;100.00;53299.06;10333508;28;20026;-71
2023/10/20 00:09:56;;;;;;;0.00;0.00;;;;;;;-145.06;100.00;53299.06;10338971;28;20030;-71
2023/10/20 00:14:56;;;;;;;0.00;0.00;;;;;;;-145.06;100.00;53402.31;10333734;28;20384;-70
2023/10/20 00:19:56;;;;;;;0.00;0.00;;;;;;;-145.06;100.00;53444.84;10337316;28;20098;-70
2023/10/20 00:24:57;;;;;;;0.10;0.10;;;;;;;-145.06;100.00;53507.63;10329648;28;20018;-71
2023/10/20 00:29:57;;;;;;;0.00;0.00;;;;;;;-145.06;100.00;53483.31;10329869;28;20022;-70
2023/10/20 00:34:57;;;;;;;0.00;0.00;;;;;;;-145.06;100.00;53436.75;10316910;28;20018;-71
2023/10/20 00:39:58;;;;;;;0.00;0.00;;;;;;;-145.06;100.00;53479.28;10330560;28;20352;-71
2023/10/20 00:44:58;;;;;;;0.00;0.00;;;;;;;-145.06;100.00;53515.72;10335846;28;20023;-71
2023/10/20 00:49:59;;;;;;;0.00;0.00;;;;;;;-145.06;100.00;53513.69;10345315;28;20291;-71
2023/10/20 00:54:59;;;;;;;0.00;0.00;;;;;;;-145.06;100.00;53535.97;10312498;28;20026;-71
2023/10/20 01:00:00;;;;;;;0.00;0.00;;;;;;;-145.06;100.00;53513.69;10339689;28;20018;-70
2023/10/20 01:05:00;;;;;;;0.00;0.00;;;;;;;-145.06;100.00;53487.38;10330209;28;20034;-70
2023/10/20 01:10:04;;;;;;;0.00;0.00;;;;;;;-145.06;100.00;53426.63;10340709;28;20030;-71
2023/10/20 01:15:06;;;;;;;0.00;0.00;;;;;;;-145.06;100.00;53404.34;10327584;28;20019;-71
2023/10/20 01:20:07;;;;;;;0.00;0.00;;;;;;;-145.06;100.00;53386.13;10309568;28;20383;-71
2023/10/20 01:25:08;;;;;;;0.00;0.00;;;;;;;-145.06;100.00;53394.22;10329314;28;20106;-71
2023/10/20 01:30:10;;;;;;;0.00;0.00;;;;;;;-145.06;100.00;53489.41;10339006;28;20022;-71
2023/10/20 01:35:11;;;;;;;0.00;0.00;;;;;;;-145.06;100.00;53402.31;10334580;28;20033;-72
2023/10/20 01:40:12;;;;;;;0.00;0.00;;;;;;;-145.06;100.00;53384.09;10345665;28;20026;-70
2023/10/20 01:45:12;;;;;;;0.00;0.00;;;;;;;-145.06;100.00;53398.28;10335095;28;20315;-71
2023/10/20 01:50:13;;;;;;;0.00;0.00;;;;;;;-145.06;100.00;53418.53;10342114;28;20026;-72
2023/10/20 01:55:14;;;;;;;0.08;0.08;;;;;;;-145.06;100.00;53487.38;10339599;28;20105;-70
2023/10/20 02:00:15;;;;;;;0.00;0.00;;;;;;;-145.06;100.00;53523.81;10338230;28;20090;-70
2023/10/20 02:05:15;;;;;;;0.00;0.00;;;;;;;-145.06;100.00;53546.09;10325216;28;20018;-70
2023/10/20 02:10:16;;;;;;;0.00;0.00;;;;;;;-145.06;100.00;53562.31;10344308;28;20049;-70
2023/10/20 02:15:16;;;;;;;0.00;0.00;;;;;;;-145.06;100.00;53521.81;10340492;28;20054;-71
2023/10/20 02:20:20;;;;;;;0.00;0.00;;;;;;;-145.06;100.00;53515.72;10332610;28;20598;-71
2023/10/20 02:25:22;;;;;;;0.00;0.00;;;;;;;-145.06;100.00;53523.81;10342875;28;20360;-70
2023/10/20 02:30:23;;;;;;;0.00;0.00;;;;;;;-145.06;100.00;53511.69;10339608;28;20030;-70
2023/10/20 02:35:23;;;;;;;0.00;0.00;;;;;;;-145.06;100.00;53463.06;10344711;28;20028;-71
2023/10/20 02:40:23;;;;;;;0.00;0.00;;;;;;;-145.06;100.00;53471.19;10347560;28;20026;-70
2023/10/20 02:45:24;;;;;;;0.00;0.00;;;;;;;-145.06;100.00;53519.78;10338897;28;20030;-70
2023/10/20 02:50:26;;;;;;;0.00;0.00;;;;;;;-145.06;100.00;53566.34;10352331;28;20033;-70
2023/10/20 02:55:27;;;;;;;0.08;0.08;;;;;;;-145.06;100.00;53564.31;10344687;28;20031;-70
2023/10/20 03:00:27;;;;;;;0.10;0.10;;;;;;;-145.06;100.00;53531.94;10338823;28;20375;-70
2023/10/20 03:05:29;;;;;;;0.00;0.00;;;;;;;-145.06;100.00;53554.19;10339433;28;20498;-70
2023/10/20 03:10:30;;;;;;;0.00;0.00;;;;;;;-145.06;100.00;53548.13;10347166;28;20027;-69
2023/10/20 03:15:31;;;;;;;0.00;0.00;;;;;;;-145.06;100.00;53507.63;10345714;28;20030;-70
2023/10/20 03:20:32;;;;;;;0.00;0.00;;;;;;;-145.06;100.00;53513.69;10343461;28;20257;-70
2023/10/20 03:25:33;;;;;;;0.00;0.00;;;;;;;-145.06;100.00;53491.44;10339081;28;20346;-71
2023/10/20 03:30:40;;;;;;;0.00;0.00;;;;;;;-145.06;100.00;53505.59;10337738;28;20036;-70
2023/10/20 03:35:40;;;;;;;0.00;0.00;;;;;;;-145.06;100.00;53552.19;10326985;28;20022;-71
2023/10/20 03:40:41;;;;;;;0.00;0.00;;;;;;;-145.06;100.00;53531.94;10332265;28;20464;-70
2023/10/20 03:45:48;;;;;;;0.00;0.00;;;;;;;-145.06;100.00;53548.13;10353234;28;20502;-71
2023/10/20 03:50:49;;;;;;;0.10;0.10;;;;;;;-145.06;100.00;53529.91;10340907;28;20061;-71
2023/10/20 03:56:00;;;;;;;0.00;0.00;;;;;;;-145.06;100.00;53503.56;10345932;28;20022;-70
2023/10/20 04:01:06;;;;;;;0.00;0.00;;;;;;;-145.06;100.00;53473.19;10355393;28;20663;-69
2023/10/20 04:06:08;;;;;;;0.00;0.00;;;;;;;-145.06;100.00;53525.84;10359474;28;20028;-70
2023/10/20 04:11:08;;;;;;;0.00;0.00;;;;;;;-145.06;100.00;53503.56;10345458;28;20033;-71
2023/10/20 04:16:13;;;;;;;0.00;0.00;;;;;;;-145.06;100.00;53521.81;10340049;28;20029;-71
2023/10/20 04:21:13;;;;;;;0.10;0.10;;;;;;;-145.06;100.00;53493.44;10349051;28;20269;-71
2023/10/20 04:26:23;;;;;;;0.00;0.00;;;;;;;-145.06;100.00;53505.59;10352809;28;20770;-73
2023/10/20 04:42:44;;;;;;;0.00;0.00;;;;;;;-145.06;100.00;53509.66;10354949;28;20026;-72
2023/10/20 04:58:45;;;;;;;0.00;0.00;;;;;;;-145.06;100.00;53544.06;10352029;28;20026;-71
2023/10/20 05:03:45;;;;;;;0.00;0.00;;;;;;;-145.06;100.00;53487.38;10350221;28;20034;-70
2023/10/20 05:08:46;;;;;;;0.00;0.00;;;;;;;-145.06;100.00;53452.94;10343466;28;20045;-72
2023/10/20 05:13:47;;;;;;;0.00;0.00;;;;;;;-145.06;100.00;53410.44;10346771;28;20368;-72
2023/10/20 05:18:47;;;;;;;0.00;0.00;;;;;;;-145.06;100.00;53418.53;10346709;28;20027;-71
2023/10/20 05:23:49;;;;;;;0.00;0.00;;;;;;;-145.06;100.00;53406.38;10350887;28;20259;-71
2023/10/20 05:28:50;;;;;;;0.00;0.00;;;;;;;-145.06;100.00;53369.94;10354399;28;20546;-71
2023/10/20 05:33:51;;;;;;;0.00;0.00;;;;;;;-145.06;100.00;53347.66;10349677;28;20018;-71
2023/10/20 05:38:51;;;;;;;0.00;0.00;;;;;;;-145.06;100.00;53274.75;10348504;28;20048;-73
2023/10/20 05:43:52;;;;;;;0.00;0.00;;;;;;;-145.06;100.00;53234.25;10351095;28;20068;-72
2023/10/20 05:48:52;;;;;;;0.00;0.00;;;;;;;-145.06;100.00;53286.91;10342921;28;20075;-72
2023/10/20 05:53:53;;;;;;;0.00;0.00;;;;;;;-145.06;100.00;53266.66;10351950;28;20159;-71
2023/10/20 05:58:53;;;;;;;0.00;0.00;;;;;;;-145.06;100.00;53230.22;10350005;28;20033;-74
2023/10/20 06:03:53;;;;;;;0.00;0.00;;;;;;;-145.06;100.00;53299.06;10340901;28;20022;-72
2023/10/20 06:08:54;;;;;;;0.00;0.00;;;;;;;-145.06;100.00;53290.97;10329416;28;20459;-73
2023/10/20 06:13:54;;;;;;;0.00;0.00;;;;;;;-145.06;100.00;53315.25;10342350;28;20681;-72
2023/10/20 06:18:54;;;;;;;0.00;0.00;;;;;;;-145.06;100.00;53394.22;10328857;28;20381;-72
2023/10/20 06:23:55;;;;;;;0.00;0.00;;;;;;;-145.06;100.00;53426.63;10351343;28;20383;-73
2023/10/20 06:28:55;;;;;;;0.00;0.00;;;;;;;-145.06;100.00;53373.97;10332778;28;20030;-71
2023/10/20 06:34:00;;;;;;;0.00;0.00;;;;;;;-145.06;100.00;53412.44;10345586;28;20014;-70
2023/10/20 06:39:03;;;;;;;0.00;0.00;;;;;;;-145.06;100.00;53452.94;10347876;28;20068;-72
2023/10/20 06:44:04;;;;;;;0.00;0.00;;;;;;;-145.06;100.00;53465.09;10338760;28;20018;-72
2023/10/20 06:49:05;;;;;;;0.00;0.00;;;;;;;-145.06;100.00;53124.94;10346201;28;20030;-71
2023/10/20 06:54:05;;;;;;;0.00;0.00;;;;;;;-145.06;100.00;53183.66;10346224;28;20076;-71
2023/10/20 06:59:06;;;;;;;0.00;0.00;;;;;;;-145.06;100.00;53128.97;10334716;28;20069;-71
2023/10/20 07:04:08;;;;;;;0.00;0.00;;;;;;;-145.06;100.00;53131.00;10335891;28;20095;-71
2023/10/20 07:09:13;;;;;;;0.00;0.00;;;;;;;-145.06;100.00;53131.00;10343416;28;20030;-72
2023/10/20 07:14:16;;;;;;;0.00;0.00;;;;;;;-145.06;100.00;53112.78;10340320;28;20046;-71
2023/10/20 07:19:16;;;;;;;0.00;0.00;;;;;;;-145.06;100.00;53106.69;10333192;28;20072;-72
2023/10/20 07:24:16;;;;;;;0.00;0.00;;;;;;;-145.06;100.00;53122.91;10345933;28;20060;-72
2023/10/20 07:29:17;;;;;;;0.00;0.00;;;;;;;-145.06;100.00;53122.91;10333311;28;20089;-71
2023/10/20 07:34:17;;;;;;;0.00;0.00;;;;;;;-145.06;100.00;53088.47;10348841;28;20117;-71
2023/10/20 07:39:17;;;;;;;0.00;0.00;;;;;;;-145.06;100.00;53098.59;10327847;28;20068;-72
2023/10/20 07:44:18;;;;;;;0.10;0.10;;;;;;;-145.06;100.00;53056.09;10337348;28;20029;-71
2023/10/20 07:49:18;;;;;;;0.00;0.00;;;;;;;-145.06;100.00;53082.41;10336241;28;20064;-70
2023/10/20 07:54:18;;;;;;;0.00;0.00;;;;;;;-145.06;100.00;53143.16;10335404;28;20505;-72
2023/10/20 07:59:18;;;;;;;0.00;0.00;;;;;;;-145.06;100.00;53147.19;10342049;28;20037;-70
2023/10/20 08:04:19;;;;;;;0.00;0.00;;;;;;;-145.06;100.00;53175.53;10341689;28;20019;-72
2023/10/20 08:09:19;;;;;;;0.00;0.00;;;;;;;-145.06;100.00;53171.50;10339987;28;20033;-71
2023/10/20 08:14:22;;;;;;;0.00;0.00;;;;;;;-145.06;100.00;53167.44;10358178;28;20368;-71
2023/10/20 08:19:23;;;;;;;0.00;0.00;;;;;;;-145.06;100.00;53135.06;10337794;28;20026;-72
2023/10/20 08:24:23;;;;;;;0.00;0.00;;;;;;;-145.06;100.00;53153.28;10336604;28;20487;-71
2023/10/20 08:29:24;;;;;;;0.00;0.00;;;;;;;-145.06;100.00;53137.06;10320693;28;20116;-71
2023/10/20 08:34:24;;;;;;;0.10;0.10;;;;;;;-145.06;100.00;53112.78;10320744;28;20018;-71
2023/10/20 08:39:27;;;;;;;0.00;0.00;;;;;;;-145.06;100.00;53074.31;10341622;28;20428;-72
2023/10/20 08:44:30;;;;;;;0.00;0.00;;;;;;;-145.06;100.00;53098.59;10340783;28;20396;-71
2023/10/20 08:49:30;;;;;;;0.00;0.00;;;;;;;-145.06;100.00;53076.34;10320778;28;20033;-73
2023/10/20 08:54:31;;;;;;;0.00;0.00;;;;;;;-145.06;100.00;53045.97;10330484;28;20022;-71
2023/10/20 08:59:32;;;;;;;0.00;0.00;;;;;;;-145.06;100.00;53098.59;10343248;28;20026;-74
2023/10/20 09:04:32;;;;;;;0.00;0.00;;;;;;;-145.06;100.00;53141.13;10340561;28;20345;-71
2023/10/20 09:09:32;;;;;;;0.00;0.00;;;;;;;-145.06;100.00;53143.16;10328477;28;20053;-71
2023/10/20 09:14:33;;;;;;;0.00;0.00;;;;;;;-145.06;100.00;53268.69;10329822;28;20102;-70
2023/10/20 09:19:33;;;;;;;0.00;0.00;;;;;;;-145.06;100.00;53226.16;10328183;28;20030;-69
2023/10/20 09:24:34;;;;;;;0.00;0.00;;;;;;;-145.06;100.00;53199.84;10331081;28;20026;-70
2023/10/20 09:29:37;;;;;;;0.00;0.00;;;;;;;-145.06;100.00;53292.97;10335352;28;20459;-70
2023/10/20 09:34:37;;;;;;;0.00;0.00;;;;;;;-145.06;100.00;63404.56;10331791;28;20029;-71
2023/10/20 09:39:39;;;;;;;0.00;0.00;;;;;;;-145.06;100.00;63404.56;10328401;28;20022;-72
2023/10/20 09:45:09;;;;;;;0.00;0.00;;;;;;;-145.06;100.00;63404.56;10346942;28;20017;-73
2023/10/20 09:50:11;;;;;;;0.00;0.00;;;;;;;-145.06;100.00;63404.56;10338349;28;20133;-72
2023/10/20 09:55:13;;;;;;;0.00;0.00;;;;;;;-145.06;100.00;63404.56;10331237;28;20144;-72
2023/10/20 10:00:16;;;;;;;0.00;0.00;;;;;;;-145.06;100.00;63404.56;10338738;28;20050;-71
2023/10/20 10:05:21;;;;;;;0.00;0.00;;;;;;;-145.06;100.00;63404.56;10330549;28;20038;-72
2023/10/20 10:10:21;;;;;;;;;;;;;;;-145.06;100.00;63404.56;10311759;28;20026;-72
2023/10/20 10:15:22;;;;;;;0.00;0.00;;;;;;;-145.06;100.00;63404.56;10326969;28;19909;-72
2023/10/20 10:20:24;;;;;;;0.00;0.00;;;;;;;-145.06;100.00;63404.56;10325706;28;20190;-73
2023/10/20 10:25:37;;;;;;;0.00;0.00;;;;;;;-145.06;100.00;63404.56;10326396;28;20548;-72
2023/10/20 10:30:38;;;;;;;0.00;0.00;;;;;;;-145.06;100.00;63404.56;10310631;28;20025;-71
2023/10/20 10:35:40;;;;;;;0.00;0.00;;;;;;;-145.06;100.00;63404.56;10325858;28;20018;-72
2023/10/20 10:40:45;;;;;;;0.00;0.00;;;;;;;-145.06;100.00;63404.56;10329359;28;20022;-72
2023/10/20 10:45:52;;;;;;;0.00;0.00;;;;;;;-145.06;100.00;63404.56;10327191;28;20014;-71
2023/10/20 10:50:52;;;;;;;0.00;0.00;;;;;;;-145.06;100.00;63404.56;10326577;28;20100;-72
2023/10/20 10:55:52;;;;;;;0.00;0.00;;;;;;;-145.06;100.00;63404.56;10327539;28;20026;-72
2023/10/20 11:00:54;;;;;;;0.00;0.00;;;;;;;-145.06;100.00;63404.56;10326921;28;20022;-72
2023/10/20 11:05:55;;;;;;;0.00;0.00;;;;;;;-145.06;100.00;63404.56;10324944;28;20029;-71
2023/10/20 11:10:59;;;;;;;0.00;0.00;;;;;;;-145.06;100.00;63404.56;10325859;28;20019;-71
2023/10/20 11:15:59;;;;;;;0.00;0.00;;;;;;;-145.06;100.00;63404.56;10332620;28;20474;-72
2023/10/20 11:21:00;;;;;;;0.00;0.00;;;;;;;-145.06;100.00;63404.56;10308723;28;20026;-71
2023/10/20 11:26:01;;;;;;;0.00;0.00;;;;;;;-145.06;100.00;63404.56;10334499;28;20168;-71
2023/10/20 11:31:02;;;;;;;0.00;0.00;;;;;;;-145.06;100.00;63404.56;10332892;28;20030;-71
2023/10/20 11:36:04;;;;;;;0.00;0.00;;;;;;;-145.06;100.00;63404.56;10338454;28;20077;-71
2023/10/20 11:41:05;;;;;;;0.03;0.03;;;;;;;-145.06;100.00;63404.56;10332281;28;20022;-71
2023/10/20 11:46:06;;;;;;;0.00;0.00;;;;;;;-145.06;100.00;63404.56;10333353;28;20030;-71
2023/10/20 11:51:08;;;;;;;0.00;0.00;;;;;;;-145.06;100.00;63404.56;10331544;28;20022;-71
2023/10/20 11:56:09;;;;;;;0.00;0.00;;;;;;;-145.06;100.00;63404.56;10331427;28;20072;-72
2023/10/20 12:01:11;;;;;;;0.00;0.00;;;;;;;-145.06;100.00;63404.56;10333257;28;20080;-71
2023/10/20 12:06:11;;;;;;;0.00;0.00;;;;;;;-145.06;100.00;63404.56;10331272;28;20038;-72
2023/10/20 12:11:11;;;;;;;0.00;0.00;;;;;;;-145.06;100.00;63404.56;10334330;28;20026;-69
2023/10/20 12:16:11;;;;;;;0.00;0.00;;;;;;;-145.06;100.00;63404.56;10330979;28;20280;-71
2023/10/20 12:21:13;;;;;;;0.00;0.00;;;;;;;-145.06;100.00;63404.56;10329999;28;20034;-71
2023/10/20 12:26:13;;;;;;;0.00;0.00;;;;;;;-145.06;100.00;63404.56;10331104;28;20110;-72
2023/10/20 12:31:14;;;;;;;0.00;0.00;;;;;;;-145.06;100.00;63404.56;10339429;28;20402;-72
2023/10/20 12:36:16;;;;;;;0.00;0.00;;;;;;;-145.06;100.00;63404.56;10340180;28;20038;-73
2023/10/20 12:41:16;;;;;;;0.00;0.00;;;;;;;-145.06;100.00;63404.56;10336303;28;20018;-72
2023/10/20 12:46:17;;;;;;;0.00;0.00;;;;;;;-145.06;100.00;63404.56;10321569;28;20045;-71
2023/10/20 12:51:17;;;;;;;0.00;0.00;;;;;;;-145.06;100.00;63404.56;10315156;28;20058;-72
2023/10/20 12:56:18;;;;;;;0.10;0.10;;;;;;;-145.06;100.00;63404.56;10341947;28;20050;-72
2023/10/20 13:01:18;;;;;;;0.00;0.00;;;;;;;-145.06;100.00;63404.56;10351794;28;20036;-73
2023/10/20 13:06:18;;;;;;;0.00;0.00;;;;;;;-145.06;100.00;63404.56;10342066;28;20077;-71
2023/10/20 13:11:19;;;;;;;0.00;0.00;;;;;;;-145.06;100.00;63404.56;10347857;28;20535;-71
2023/10/20 13:16:19;;;;;;;0.00;0.00;;;;;;;-145.06;100.00;63404.56;10341031;28;20344;-72
2023/10/20 13:21:20;;;;;;;0.00;0.00;;;;;;;-145.06;100.00;63404.56;10335482;28;20030;-72
2023/10/20 13:26:20;;;;;;;0.00;0.00;;;;;;;-145.06;100.00;63404.56;10329756;28;20371;-70
2023/10/20 13:31:23;;;;;;;0.00;0.00;;;;;;;-145.06;100.00;63404.56;10334075;28;20388;-70
2023/10/20 13:36:23;;;;;;;0.00;0.00;;;;;;;-145.06;100.00;63404.56;10339645;28;20261;-70
2023/10/20 13:41:24;;;;;;;0.00;0.00;;;;;;;-145.06;100.00;63404.56;10336640;28;20018;-71
2023/10/20 13:46:24;;;;;;;0.00;0.00;;;;;;;-145.06;100.00;63404.56;10333664;28;20349;-71
2023/10/20 13:51:24;;;;;;;0.00;0.00;;;;;;;-145.06;100.00;63404.56;10338666;28;20640;-71
2023/10/20 13:56:24;;;;;;;0.00;0.00;;;;;;;-145.06;100.00;63404.56;10328387;28;20491;-71
2023/10/20 14:01:25;;;;;;;0.00;0.00;;;;;;;-145.06;100.00;63404.56;10331838;28;20618;-71
2023/10/20 14:06:25;;;;;;;0.00;0.00;;;;;;;-145.06;100.00;63404.56;10326865;28;20044;-71
2023/10/20 14:11:26;;;;;;;0.00;0.00;;;;;;;-145.06;100.00;63404.56;10332733;28;20018;-71
2023/10/20 14:16:26;;;;;;;0.03;0.03;;;;;;;-145.06;100.00;63404.56;10328057;28;20033;-70
2023/10/20 14:21:27;;;;;;;0.00;0.00;;;;;;;-145.06;100.00;63404.56;10331901;28;20262;-71
2023/10/20 14:26:27;;;;;;;0.00;0.00;;;;;;;-145.06;100.00;63404.56;10330752;28;20026;-71
2023/10/20 14:31:29;;;;;;;0.00;0.00;;;;;;;-145.06;100.00;63404.56;10332401;28;20085;-71
2023/10/20 14:36:30;;;;;;;0.00;0.00;;;;;;;-145.06;100.00;63404.56;10328512;28;20018;-71
2023/10/20 14:41:30;;;;;;;0.00;0.00;;;;;;;-145.06;100.00;63404.56;10298524;28;20356;-70
2023/10/20 14:46:30;;;;;;;0.00;0.00;;;;;;;-145.06;100.00;63404.56;10325521;28;20316;-70
2023/10/20 14:51:31;;;;;;;0.00;0.00;;;;;;;-145.06;100.00;63404.56;10326552;28;20391;-71
2023/10/20 14:56:32;;;;;;;0.00;0.00;;;;;;;-145.06;100.00;63404.56;10318697;28;20022;-70
2023/10/20 15:01:33;;;;;;;0.00;0.00;;;;;;;-145.06;100.00;63404.56;10335468;28;20014;-70
2023/10/20 15:06:33;;;;;;;0.00;0.00;;;;;;;-145.06;100.00;63404.56;10332567;28;20014;-70
2023/10/20 15:11:34;;;;;;;0.00;0.00;;;;;;;-145.06;100.00;63404.56;10336251;28;20036;-71
2023/10/20 15:16:34;;;;;;;0.00;0.00;;;;;;;-145.06;100.00;63404.56;10351818;28;20382;-70
2023/10/20 15:21:34;;;;;;;0.00;0.00;;;;;;;-145.06;100.00;63404.56;10336460;28;20110;-70
2023/10/20 15:26:34;;;;;;;0.00;0.00;;;;;;;-145.06;100.00;63404.56;10328165;28;20041;-71
2023/10/20 15:31:35;;;;;;;0.00;0.00;;;;;;;-145.06;100.00;63404.56;10339881;28;20480;-71
2023/10/20 15:36:46;;;;;;;0.00;0.00;;;;;;;-145.06;100.00;63404.56;10348066;28;20094;-71
2023/10/20 15:41:46;;;;;;;0.00;0.00;;;;;;;-145.06;100.00;63404.56;10350454;28;20109;-72
2023/10/20 15:46:46;;;;;;;0.00;0.00;;;;;;;-145.06;100.00;63404.56;10340746;28;20042;-72
2023/10/20 15:51:47;;;;;;;0.00;0.00;;;;;;;-145.06;100.00;63404.56;10351648;28;20327;-70
2023/10/20 15:56:51;;;;;;;0.10;0.10;;;;;;;-145.06;100.00;63404.56;10337013;28;20028;-71
2023/10/20 16:01:51;;;;;;;0.00;0.00;;;;;;;-145.06;100.00;63404.56;10345872;28;20113;-71
2023/10/20 16:06:51;;;;;;;0.00;0.00;;;;;;;-145.06;100.00;63404.56;10336825;28;20120;-71
2023/10/20 16:11:52;;;;;;;0.10;0.10;;;;;;;-145.06;100.00;63404.56;10334065;28;20049;-71
2023/10/20 16:16:52;;;;;;;0.00;0.00;;;;;;;-145.06;100.00;63404.56;10331326;28;20022;-70
2023/10/20 16:21:52;;;;;;;0.00;0.00;;;;;;;-145.06;100.00;63404.56;10330457;28;20260;-71
2023/10/20 16:26:54;;;;;;;0.00;0.00;;;;;;;-145.06;100.00;63404.56;10332265;28;20136;-72
2023/10/20 16:31:54;;;;;;;0.00;0.00;;;;;;;-145.06;100.00;63404.56;10326851;28;20565;-70
2023/10/20 16:36:55;;;;;;;0.00;0.00;;;;;;;-145.06;100.00;63404.56;10333599;28;20053;-71
2023/10/20 16:41:56;;;;;;;0.00;0.00;;;;;;;-145.06;100.00;63404.56;10318595;28;20019;-71
2023/10/20 16:46:58;;;;;;;0.00;0.00;;;;;;;-145.06;100.00;63404.56;10329797;28;20077;-71
2023/10/20 16:51:58;;;;;;;0.00;0.00;;;;;;;-145.06;100.00;63404.56;10336835;28;20014;-71
2023/10/20 16:56:59;;;;;;;0.00;0.00;;;;;;;-145.06;100.00;63404.56;10311997;28;20021;-70
2023/10/20 17:01:59;;;;;;;0.00;0.00;;;;;;;-145.06;100.00;63404.56;10332831;28;20389;-71
2023/10/20 17:06:59;;;;;;;0.00;0.00;;;;;;;-145.06;100.00;63404.56;10336144;28;20787;-70
2023/10/20 17:12:00;;;;;;;0.00;0.00;;;;;;;-145.06;100.00;63404.56;10339012;28;20086;-70
2023/10/20 17:17:00;;;;;;;0.00;0.00;;;;;;;-145.06;100.00;63404.56;10335128;28;20485;-71
2023/10/20 17:22:00;;;;;;;0.00;0.00;;;;;;;-145.06;100.00;63404.56;10330434;28;20269;-70
2023/10/20 17:27:02;;;;;;;0.00;0.00;;;;;;;-145.06;100.00;63404.56;10312330;28;20297;-70
2023/10/20 17:32:04;;;;;;;0.00;0.00;;;;;;;-145.06;100.00;63404.56;10335383;28;20041;-71
2023/10/20 17:37:05;;;;;;;0.00;0.00;;;;;;;-145.06;100.00;63404.56;10333979;28;20050;-70
2023/10/20 17:42:06;;;;;;;0.00;0.00;;;;;;;-145.06;100.00;63404.56;10310737;28;20046;-71
2023/10/20 17:47:06;;;;;;;0.00;0.00;;;;;;;-145.06;100.00;63404.56;10313648;28;20482;-71
2023/10/20 17:52:06;;;;;;;0.00;0.00;;;;;;;-145.06;100.00;63404.56;10330783;28;20432;-71
2023/10/20 17:57:07;;;;;;;0.00;0.00;;;;;;;-145.06;100.00;63404.56;10331003;28;20779;-72
2023/10/20 18:02:10;;;;;;;0.00;0.00;;;;;;;-145.06;100.00;63404.56;10327363;28;20276;-70
2023/10/20 18:07:10;;;;;;;0.00;0.00;;;;;;;-145.06;100.00;63404.56;10326787;28;20403;-71
2023/10/20 18:12:11;;;;;;;0.00;0.00;;;;;;;-145.06;100.00;63404.56;10326488;28;20029;-71
2023/10/20 18:17:12;;;;;;;0.00;0.00;;;;;;;-145.06;100.00;63404.56;10326364;28;20033;-71
2023/10/20 18:22:12;;;;;;;0.00;0.00;;;;;;;-145.06;100.00;63404.56;10329197;28;20026;-72
2023/10/20 18:27:12;;;;;;;0.00;0.00;;;;;;;-145.06;100.00;63404.56;10330275;28;20033;-72
2023/10/20 18:32:13;;;;;;;0.00;0.00;;;;;;;-145.06;100.00;63404.56;10333576;28;20361;-71
2023/10/20 18:37:14;;;;;;;0.00;0.00;;;;;;;-145.06;100.00;63404.56;10330112;28;20377;-71
2023/10/20 18:42:14;;;;;;;0.00;0.00;;;;;;;-145.06;100.00;63404.56;10327808;28;20022;-71
2023/10/20 18:47:15;;;;;;;0.00;0.00;;;;;;;-145.06;100.00;63404.56;10330830;28;20034;-71
2023/10/20 18:52:15;;;;;;;0.00;0.00;;;;;;;-145.06;100.00;63404.56;10317103;28;20022;-71
2023/10/20 18:57:15;;;;;;;0.00;0.00;;;;;;;-145.06;100.00;63404.56;10332931;28;20049;-71
2023/10/20 19:02:16;;;;;;;0.00;0.00;;;;;;;-145.06;100.00;63404.56;10327236;28;20121;-71
2023/10/20 19:07:16;;;;;;;0.00;0.00;;;;;;;-145.06;100.00;63404.56;10329709;28;20022;-71
2023/10/20 19:12:16;;;;;;;0.00;0.00;;;;;;;-145.06;100.00;63404.56;10335292;28;20030;-70
2023/10/20 19:17:17;;;;;;;0.00;0.00;;;;;;;-145.06;100.00;63404.56;10331952;28;20029;-70
2023/10/20 19:22:17;;;;;;;0.00;0.00;;;;;;;-145.06;100.00;63404.56;10327803;28;20499;-72
2023/10/20 19:27:18;;;;;;;0.00;0.00;;;;;;;-145.06;100.00;63404.56;10330551;28;20037;-70
2023/10/20 19:32:18;;;;;;;0.00;0.00;;;;;;;-145.06;100.00;63404.56;10327900;28;20285;-72
2023/10/20 19:37:19;;;;;;;0.00;0.00;;;;;;;-145.06;100.00;63404.56;10331612;28;20023;-71
2023/10/20 19:42:19;;;;;;;0.00;0.00;;;;;;;-145.06;100.00;63404.56;10331230;28;20456;-70
2023/10/20 19:47:19;;;;;;;0.00;0.00;;;;;;;-145.06;100.00;63404.56;10341095;28;20400;-71
2023/10/20 19:52:20;;;;;;;0.00;0.00;;;;;;;-145.06;100.00;63404.56;10341590;28;20026;-71
2023/10/20 19:57:20;;;;;;;0.00;0.00;;;;;;;-145.06;100.00;63404.56;10335357;28;20030;-71
2023/10/20 20:02:20;;;;;;;0.00;0.00;;;;;;;-145.06;100.00;63404.56;10347305;28;20257;-70
2023/10/20 20:07:23;;;;;;;0.00;0.00;;;;;;;-145.06;100.00;63404.56;10337824;28;20037;-71
2023/10/20 20:12:23;;;;;;;0.00;0.00;;;;;;;-145.06;100.00;63404.56;10317864;28;20385;-71
2023/10/20 20:17:24;;;;;;;0.00;0.00;;;;;;;-145.06;100.00;63404.56;10315677;28;20026;-70
2023/10/20 20:22:25;;;;;;;0.00;0.00;;;;;;;-145.06;100.00;63404.56;10322242;28;20030;-70
2023/10/20 20:27:25;;;;;;;0.00;0.00;;;;;;;-145.06;100.00;63404.56;10347472;28;20278;-70
2023/10/20 20:32:25;;;;;;;0.00;0.00;;;;;;;-145.06;100.00;63404.56;10342607;28;20364;-70
2023/10/20 20:37:26;;;;;;;0.00;0.00;;;;;;;-145.06;100.00;63404.56;10341029;28;20029;-72
2023/10/20 20:42:26;;;;;;;0.00;0.00;;;;;;;-145.06;100.00;63404.56;10333330;28;20500;-70
2023/10/20 20:47:26;;;;;;;0.00;0.00;;;;;;;-145.06;100.00;63404.56;10337419;28;20042;-70
2023/10/20 20:52:27;;;;;;;0.00;0.00;;;;;;;-145.06;100.00;63404.56;10332365;28;20471;-69
2023/10/20 20:57:28;;;;;;;0.00;0.00;;;;;;;-145.06;100.00;63404.56;10331075;28;20026;-70
2023/10/20 21:02:28;;;;;;;0.00;0.00;;;;;;;-145.06;100.00;63404.56;10334262;28;20145;-71
2023/10/20 21:07:28;;;;;;;0.00;0.00;;;;;;;-145.06;100.00;63404.56;10332308;28;20026;-70
2023/10/20 21:12:29;;;;;;;0.00;0.00;;;;;;;-145.06;100.00;63404.56;10338168;28;20285;-71
2023/10/20 21:17:29;;;;;;;0.00;0.00;;;;;;;-145.06;100.00;63404.56;10331351;28;20262;-69
2023/10/20 21:22:30;;;;;;;0.00;0.00;;;;;;;-145.06;100.00;63404.56;10337843;28;20022;-68
2023/10/20 21:27:30;;;;;;;0.00;0.00;;;;;;;-145.06;100.00;63404.56;10335830;28;20418;-68
2023/10/20 21:32:30;;;;;;;0.00;0.00;;;;;;;-145.06;100.00;63404.56;10341803;28;20026;-68
2023/10/20 21:37:30;;;;;;;0.00;0.00;;;;;;;-145.06;100.00;63404.56;10331401;28;20044;-69
2023/10/20 21:42:32;;;;;;;0.00;0.00;;;;;;;-145.06;100.00;63404.56;10342184;28;20516;-69
2023/10/20 21:47:32;;;;;;;0.00;0.00;;;;;;;-145.06;100.00;63404.56;10338574;28;20651;-68
2023/10/20 21:52:33;;;;;;;0.00;0.00;;;;;;;-145.06;100.00;63404.56;10344590;28;20081;-68
2023/10/20 21:57:33;;;;;;;0.00;0.00;;;;;;;-145.06;100.00;63404.56;10353618;28;20025;-68
2023/10/20 22:02:33;;;;;;;0.00;0.00;;;;;;;-145.06;100.00;63404.56;10341541;28;20094;-68
2023/10/20 22:07:34;;;;;;;0.00;0.00;;;;;;;-145.06;100.00;63404.56;10346759;28;20018;-69
2023/10/20 22:12:35;;;;;;;0.00;0.00;;;;;;;-145.06;100.00;63404.56;10344520;28;20041;-68
2023/10/20 22:17:35;;;;;;;0.00;0.00;;;;;;;-145.06;100.00;63404.56;10332689;28;20030;-68
2023/10/20 22:22:36;;;;;;;0.00;0.00;;;;;;;-145.06;100.00;63404.56;10358162;28;20022;-68
2023/10/20 22:27:36;;;;;;;0.00;0.00;;;;;;;-145.06;100.00;63404.56;10346437;28;20484;-68
2023/10/20 22:32:37;;;;;;;0.00;0.00;;;;;;;-145.06;100.00;63404.56;10359304;28;20022;-70
2023/10/20 22:37:37;;;;;;;0.00;0.00;;;;;;;-145.06;100.00;63404.56;10332841;28;20379;-69
2023/10/20 22:42:37;;;;;;;0.00;0.00;;;;;;;-145.06;100.00;63404.56;10343868;28;20391;-69
2023/10/20 22:47:38;;;;;;;0.00;0.00;;;;;;;-145.06;100.00;63404.56;10345684;28;20026;-68
2023/10/20 22:52:38;;;;;;;0.00;0.00;;;;;;;-145.06;100.00;63404.56;10349304;28;20030;-69
2023/10/20 22:57:38;;;;;;;0.00;0.00;;;;;;;-145.06;100.00;63404.56;10350217;28;20057;-69